sensor_id;sensor_type;location;lat;lon;timestamp;P1;durP1;ratioP1;P2;durP2;ratioP2
33279;SDS011;20403;43.114;12.434;2023-02-02T00:02:00;18.10;;;8.00;;
33279;SDS011;20403;43.114;12.434;2023-02-02T00:04:27;21.77;;;8.88;;
33279;SDS011;20403;43.114;12.434;2023-02-02T00:09:23;14.50;;;7.85;;
33279;SDS011;20403;43.114;12.434;2023-02-02T00:11:50;21.42;;;8.13;;
33279;SDS011;20403;43.114;12.434;2023-02-02T00:14:16;16.05;;;7.60;;
33279;SDS011;20403;43.114;12.434;2023-02-02T00:16:43;12.88;;;7.50;;
33279;SDS011;20403;43.114;12.434;2023-02-02T00:19:15;18.02;;;8.30;;
33279;SDS011;20403;43.114;12.434;2023-02-02T00:21:45;14.32;;;7.15;;
33279;SDS011;20403;43.114;12.434;2023-02-02T00:24:13;17.08;;;8.25;;
33279;SDS011;20403;43.114;12.434;2023-02-02T00:26:42;13.40;;;7.95;;
33279;SDS011;20403;43.114;12.434;2023-02-02T00:29:12;18.85;;;8.18;;
33279;SDS011;20403;43.114;12.434;2023-02-02T00:31:41;13.02;;;7.78;;
33279;SDS011;20403;43.114;12.434;2023-02-02T00:34:08;22.05;;;8.13;;
33279;SDS011;20403;43.114;12.434;2023-02-02T00:36:35;17.52;;;8.45;;
33279;SDS011;20403;43.114;12.434;2023-02-02T00:39:00;17.33;;;8.60;;
33279;SDS011;20403;43.114;12.434;2023-02-02T00:41:25;19.38;;;8.00;;
33279;SDS011;20403;43.114;12.434;2023-02-02T00:43:51;20.13;;;7.75;;
33279;SDS011;20403;43.114;12.434;2023-02-02T00:46:37;16.17;;;8.40;;
33279;SDS011;20403;43.114;12.434;2023-02-02T00:49:03;13.68;;;7.55;;
33279;SDS011;20403;43.114;12.434;2023-02-02T00:51:29;16.95;;;8.52;;
33279;SDS011;20403;43.114;12.434;2023-02-02T00:53:54;16.67;;;8.18;;
33279;SDS011;20403;43.114;12.434;2023-02-02T00:56:19;16.15;;;7.95;;
33279;SDS011;20403;43.114;12.434;2023-02-02T00:58:45;16.58;;;7.60;;
33279;SDS011;20403;43.114;12.434;2023-02-02T01:01:14;17.13;;;8.70;;
33279;SDS011;20403;43.114;12.434;2023-02-02T01:03:41;16.30;;;8.45;;
33279;SDS011;20403;43.114;12.434;2023-02-02T01:06:07;16.25;;;8.00;;
33279;SDS011;20403;43.114;12.434;2023-02-02T01:08:32;14.88;;;7.25;;
33279;SDS011;20403;43.114;12.434;2023-02-02T01:10:58;17.23;;;8.32;;
33279;SDS011;20403;43.114;12.434;2023-02-02T01:13:24;16.30;;;8.02;;
33279;SDS011;20403;43.114;12.434;2023-02-02T01:15:54;15.65;;;7.80;;
33279;SDS011;20403;43.114;12.434;2023-02-02T01:18:20;18.13;;;9.00;;
33279;SDS011;20403;43.114;12.434;2023-02-02T01:20:45;14.32;;;8.30;;
33279;SDS011;20403;43.114;12.434;2023-02-02T01:23:11;20.10;;;9.10;;
33279;SDS011;20403;43.114;12.434;2023-02-02T01:25:36;21.50;;;9.80;;
33279;SDS011;20403;43.114;12.434;2023-02-02T01:28:02;19.52;;;8.90;;
33279;SDS011;20403;43.114;12.434;2023-02-02T01:30:28;16.27;;;8.70;;
33279;SDS011;20403;43.114;12.434;2023-02-02T01:32:53;20.02;;;8.82;;
33279;SDS011;20403;43.114;12.434;2023-02-02T01:35:19;18.02;;;8.85;;
33279;SDS011;20403;43.114;12.434;2023-02-02T01:37:44;15.40;;;8.45;;
33279;SDS011;20403;43.114;12.434;2023-02-02T01:40:10;15.18;;;8.35;;
33279;SDS011;20403;43.114;12.434;2023-02-02T01:42:36;15.50;;;8.50;;
33279;SDS011;20403;43.114;12.434;2023-02-02T01:45:21;15.82;;;8.23;;
33279;SDS011;20403;43.114;12.434;2023-02-02T01:47:51;14.95;;;8.13;;
33279;SDS011;20403;43.114;12.434;2023-02-02T01:50:20;20.80;;;9.00;;
33279;SDS011;20403;43.114;12.434;2023-02-02T01:52:49;16.52;;;8.35;;
33279;SDS011;20403;43.114;12.434;2023-02-02T01:55:17;15.93;;;8.45;;
33279;SDS011;20403;43.114;12.434;2023-02-02T01:57:48;15.43;;;8.20;;
33279;SDS011;20403;43.114;12.434;2023-02-02T02:00:18;17.98;;;8.85;;
33279;SDS011;20403;43.114;12.434;2023-02-02T02:02:49;15.93;;;8.23;;
33279;SDS011;20403;43.114;12.434;2023-02-02T02:05:18;14.05;;;8.23;;
33279;SDS011;20403;43.114;12.434;2023-02-02T02:07:49;15.48;;;8.43;;
33279;SDS011;20403;43.114;12.434;2023-02-02T02:10:19;20.70;;;9.15;;
33279;SDS011;20403;43.114;12.434;2023-02-02T02:12:45;17.42;;;8.25;;
33279;SDS011;20403;43.114;12.434;2023-02-02T02:15:12;18.08;;;8.80;;
33279;SDS011;20403;43.114;12.434;2023-02-02T02:35:27;18.30;;;8.70;;
33279;SDS011;20403;43.114;12.434;2023-02-02T02:40:36;14.82;;;7.60;;
33279;SDS011;20403;43.114;12.434;2023-02-02T02:43:11;20.13;;;8.57;;
33279;SDS011;20403;43.114;12.434;2023-02-02T02:45:44;13.70;;;7.75;;
33279;SDS011;20403;43.114;12.434;2023-02-02T02:48:10;16.67;;;8.05;;
33279;SDS011;20403;43.114;12.434;2023-02-02T02:50:36;19.85;;;7.53;;
33279;SDS011;20403;43.114;12.434;2023-02-02T02:53:07;25.08;;;9.68;;
33279;SDS011;20403;43.114;12.434;2023-02-02T02:55:41;18.63;;;9.02;;
33279;SDS011;20403;43.114;12.434;2023-02-02T02:58:15;20.58;;;8.60;;
33279;SDS011;20403;43.114;12.434;2023-02-02T03:00:54;20.60;;;9.32;;
33279;SDS011;20403;43.114;12.434;2023-02-02T03:06:22;17.20;;;9.20;;
33279;SDS011;20403;43.114;12.434;2023-02-02T03:09:02;31.77;;;9.95;;
33279;SDS011;20403;43.114;12.434;2023-02-02T03:11:33;29.83;;;9.77;;
33279;SDS011;20403;43.114;12.434;2023-02-02T03:13:59;17.45;;;9.18;;
33279;SDS011;20403;43.114;12.434;2023-02-02T03:16:25;16.65;;;9.23;;
33279;SDS011;20403;43.114;12.434;2023-02-02T03:18:51;22.55;;;9.50;;
33279;SDS011;20403;43.114;12.434;2023-02-02T03:21:16;20.58;;;8.75;;
33279;SDS011;20403;43.114;12.434;2023-02-02T03:23:42;22.95;;;8.80;;
33279;SDS011;20403;43.114;12.434;2023-02-02T03:26:07;18.45;;;8.90;;
33279;SDS011;20403;43.114;12.434;2023-02-02T03:28:33;15.73;;;7.82;;
33279;SDS011;20403;43.114;12.434;2023-02-02T03:30:59;16.73;;;9.75;;
33279;SDS011;20403;43.114;12.434;2023-02-02T03:33:25;17.42;;;7.95;;
33279;SDS011;20403;43.114;12.434;2023-02-02T03:35:51;18.10;;;8.65;;
33279;SDS011;20403;43.114;12.434;2023-02-02T03:38:17;16.88;;;8.10;;
33279;SDS011;20403;43.114;12.434;2023-02-02T03:40:43;16.10;;;8.23;;
33279;SDS011;20403;43.114;12.434;2023-02-02T03:43:08;22.27;;;9.48;;
33279;SDS011;20403;43.114;12.434;2023-02-02T03:45:34;16.42;;;9.00;;
33279;SDS011;20403;43.114;12.434;2023-02-02T03:48:02;17.00;;;8.13;;
33279;SDS011;20403;43.114;12.434;2023-02-02T03:50:28;15.75;;;8.27;;
33279;SDS011;20403;43.114;12.434;2023-02-02T03:52:53;24.85;;;9.57;;
33279;SDS011;20403;43.114;12.434;2023-02-02T03:55:19;19.00;;;8.52;;
33279;SDS011;20403;43.114;12.434;2023-02-02T03:57:45;19.27;;;7.97;;
33279;SDS011;20403;43.114;12.434;2023-02-02T04:00:10;15.07;;;7.78;;
33279;SDS011;20403;43.114;12.434;2023-02-02T04:02:36;14.73;;;8.38;;
33279;SDS011;20403;43.114;12.434;2023-02-02T04:05:02;18.65;;;9.07;;
33279;SDS011;20403;43.114;12.434;2023-02-02T04:07:27;17.25;;;8.00;;
33279;SDS011;20403;43.114;12.434;2023-02-02T04:09:53;16.23;;;8.60;;
33279;SDS011;20403;43.114;12.434;2023-02-02T04:12:18;16.33;;;8.68;;
33279;SDS011;20403;43.114;12.434;2023-02-02T04:14:43;13.80;;;7.80;;
33279;SDS011;20403;43.114;12.434;2023-02-02T04:17:09;16.95;;;8.43;;
33279;SDS011;20403;43.114;12.434;2023-02-02T04:19:35;19.45;;;9.32;;
33279;SDS011;20403;43.114;12.434;2023-02-02T04:22:00;21.35;;;9.80;;
33279;SDS011;20403;43.114;12.434;2023-02-02T04:24:26;24.42;;;9.45;;
33279;SDS011;20403;43.114;12.434;2023-02-02T04:26:51;19.58;;;9.45;;
33279;SDS011;20403;43.114;12.434;2023-02-02T04:29:16;20.98;;;10.75;;
33279;SDS011;20403;43.114;12.434;2023-02-02T04:31:42;19.85;;;9.00;;
33279;SDS011;20403;43.114;12.434;2023-02-02T04:34:07;16.15;;;9.40;;
33279;SDS011;20403;43.114;12.434;2023-02-02T04:36:33;23.55;;;10.90;;
33279;SDS011;20403;43.114;12.434;2023-02-02T04:38:58;19.08;;;10.23;;
33279;SDS011;20403;43.114;12.434;2023-02-02T04:41:23;23.77;;;10.73;;
33279;SDS011;20403;43.114;12.434;2023-02-02T04:43:49;21.77;;;10.32;;
33279;SDS011;20403;43.114;12.434;2023-02-02T04:46:14;16.45;;;9.40;;
33279;SDS011;20403;43.114;12.434;2023-02-02T04:48:40;20.67;;;10.23;;
33279;SDS011;20403;43.114;12.434;2023-02-02T04:51:11;23.05;;;9.70;;
33279;SDS011;20403;43.114;12.434;2023-02-02T04:53:38;20.10;;;10.05;;
33279;SDS011;20403;43.114;12.434;2023-02-02T04:56:06;19.02;;;11.05;;
33279;SDS011;20403;43.114;12.434;2023-02-02T06:58:33;26.60;;;11.67;;
33279;SDS011;20403;43.114;12.434;2023-02-02T07:01:06;22.10;;;11.75;;
33279;SDS011;20403;43.114;12.434;2023-02-02T07:03:33;31.13;;;13.23;;
33279;SDS011;20403;43.114;12.434;2023-02-02T07:06:09;28.48;;;11.98;;
33279;SDS011;20403;43.114;12.434;2023-02-02T07:08:38;26.23;;;10.82;;
33279;SDS011;20403;43.114;12.434;2023-02-02T07:11:04;22.02;;;11.57;;
33279;SDS011;20403;43.114;12.434;2023-02-02T07:13:29;37.55;;;11.43;;
33279;SDS011;20403;43.114;12.434;2023-02-02T07:15:55;41.05;;;13.73;;
33279;SDS011;20403;43.114;12.434;2023-02-02T07:18:21;25.85;;;11.52;;
33279;SDS011;20403;43.114;12.434;2023-02-02T07:20:46;20.50;;;10.60;;
33279;SDS011;20403;43.114;12.434;2023-02-02T07:23:12;28.10;;;11.57;;
33279;SDS011;20403;43.114;12.434;2023-02-02T07:25:37;20.20;;;11.13;;
33279;SDS011;20403;43.114;12.434;2023-02-02T07:28:03;20.02;;;10.77;;
33279;SDS011;20403;43.114;12.434;2023-02-02T07:30:28;25.52;;;11.68;;
33279;SDS011;20403;43.114;12.434;2023-02-02T07:32:54;28.23;;;11.88;;
33279;SDS011;20403;43.114;12.434;2023-02-02T07:35:20;20.13;;;11.20;;
33279;SDS011;20403;43.114;12.434;2023-02-02T07:37:50;26.45;;;12.23;;
33279;SDS011;20403;43.114;12.434;2023-02-02T07:40:16;30.00;;;12.48;;
33279;SDS011;20403;43.114;12.434;2023-02-02T07:42:42;22.50;;;12.70;;
33279;SDS011;20403;43.114;12.434;2023-02-02T07:45:10;25.70;;;12.18;;
33279;SDS011;20403;43.114;12.434;2023-02-02T07:47:35;22.98;;;13.02;;
33279;SDS011;20403;43.114;12.434;2023-02-02T07:50:01;20.83;;;11.13;;
33279;SDS011;20403;43.114;12.434;2023-02-02T07:52:27;21.08;;;11.38;;
33279;SDS011;20403;43.114;12.434;2023-02-02T07:54:53;26.67;;;13.65;;
33279;SDS011;20403;43.114;12.434;2023-02-02T07:57:18;27.40;;;14.98;;
33279;SDS011;20403;43.114;12.434;2023-02-02T07:59:44;27.85;;;14.18;;
33279;SDS011;20403;43.114;12.434;2023-02-02T08:02:09;25.55;;;13.80;;
33279;SDS011;20403;43.114;12.434;2023-02-02T08:04:34;33.05;;;14.55;;
33279;SDS011;20403;43.114;12.434;2023-02-02T08:07:00;35.70;;;16.25;;
33279;SDS011;20403;43.114;12.434;2023-02-02T08:09:25;40.72;;;21.42;;
33279;SDS011;20403;43.114;12.434;2023-02-02T08:11:51;28.48;;;15.73;;
33279;SDS011;20403;43.114;12.434;2023-02-02T08:14:16;26.33;;;13.27;;
33279;SDS011;20403;43.114;12.434;2023-02-02T08:16:41;24.75;;;12.15;;
33279;SDS011;20403;43.114;12.434;2023-02-02T08:19:08;25.90;;;14.43;;
33279;SDS011;20403;43.114;12.434;2023-02-02T08:21:34;27.45;;;14.20;;
33279;SDS011;20403;43.114;12.434;2023-02-02T08:23:59;25.88;;;13.50;;
33279;SDS011;20403;43.114;12.434;2023-02-02T08:26:27;30.08;;;12.32;;
33279;SDS011;20403;43.114;12.434;2023-02-02T08:28:55;25.92;;;14.88;;
33279;SDS011;20403;43.114;12.434;2023-02-02T08:31:23;36.10;;;15.00;;
33279;SDS011;20403;43.114;12.434;2023-02-02T08:33:54;31.92;;;14.60;;
33279;SDS011;20403;43.114;12.434;2023-02-02T08:36:20;35.60;;;14.32;;
33279;SDS011;20403;43.114;12.434;2023-02-02T08:38:47;34.03;;;15.70;;
33279;SDS011;20403;43.114;12.434;2023-02-02T08:41:14;31.00;;;14.20;;
33279;SDS011;20403;43.114;12.434;2023-02-02T08:43:42;28.23;;;13.88;;
33279;SDS011;20403;43.114;12.434;2023-02-02T08:46:09;31.33;;;14.15;;
33279;SDS011;20403;43.114;12.434;2023-02-02T08:48:36;38.50;;;16.27;;
33279;SDS011;20403;43.114;12.434;2023-02-02T08:51:03;32.17;;;14.40;;
33279;SDS011;20403;43.114;12.434;2023-02-02T08:53:30;27.00;;;13.90;;
33279;SDS011;20403;43.114;12.434;2023-02-02T08:55:59;25.10;;;14.05;;
33279;SDS011;20403;43.114;12.434;2023-02-02T08:58:26;25.63;;;14.10;;
33279;SDS011;20403;43.114;12.434;2023-02-02T09:00:52;39.33;;;15.90;;
33279;SDS011;20403;43.114;12.434;2023-02-02T09:03:18;30.73;;;14.20;;
33279;SDS011;20403;43.114;12.434;2023-02-02T09:05:43;34.00;;;14.93;;
33279;SDS011;20403;43.114;12.434;2023-02-02T09:08:09;25.98;;;13.63;;
33279;SDS011;20403;43.114;12.434;2023-02-02T09:10:35;28.38;;;14.30;;
33279;SDS011;20403;43.114;12.434;2023-02-02T09:13:01;28.50;;;14.70;;
33279;SDS011;20403;43.114;12.434;2023-02-02T09:15:27;27.17;;;14.20;;
33279;SDS011;20403;43.114;12.434;2023-02-02T09:17:52;29.15;;;14.80;;
33279;SDS011;20403;43.114;12.434;2023-02-02T09:20:18;29.30;;;14.93;;
33279;SDS011;20403;43.114;12.434;2023-02-02T09:22:43;35.70;;;15.88;;
33279;SDS011;20403;43.114;12.434;2023-02-02T09:25:08;29.92;;;16.90;;
33279;SDS011;20403;43.114;12.434;2023-02-02T09:27:37;34.67;;;16.90;;
33279;SDS011;20403;43.114;12.434;2023-02-02T09:30:05;30.42;;;15.68;;
33279;SDS011;20403;43.114;12.434;2023-02-02T09:32:31;30.70;;;16.85;;
33279;SDS011;20403;43.114;12.434;2023-02-02T09:34:57;33.83;;;16.77;;
33279;SDS011;20403;43.114;12.434;2023-02-02T09:37:24;39.33;;;17.70;;
33279;SDS011;20403;43.114;12.434;2023-02-02T09:39:50;31.33;;;15.82;;
33279;SDS011;20403;43.114;12.434;2023-02-02T09:45:03;40.50;;;15.95;;
33279;SDS011;20403;43.114;12.434;2023-02-02T10:01:11;25.33;;;13.20;;
33279;SDS011;20403;43.114;12.434;2023-02-02T10:06:28;24.10;;;10.90;;
33279;SDS011;20403;43.114;12.434;2023-02-02T10:14:31;35.78;;;14.10;;
33279;SDS011;20403;43.114;12.434;2023-02-02T10:17:07;31.67;;;14.73;;
33279;SDS011;20403;43.114;12.434;2023-02-02T10:19:45;34.53;;;15.10;;
33279;SDS011;20403;43.114;12.434;2023-02-02T10:22:21;37.85;;;15.60;;
33279;SDS011;20403;43.114;12.434;2023-02-02T10:24:51;34.65;;;15.10;;
33279;SDS011;20403;43.114;12.434;2023-02-02T10:27:19;47.50;;;16.98;;
33279;SDS011;20403;43.114;12.434;2023-02-02T10:30:01;29.55;;;16.00;;
33279;SDS011;20403;43.114;12.434;2023-02-02T10:32:41;32.20;;;15.65;;
33279;SDS011;20403;43.114;12.434;2023-02-02T10:43:41;29.20;;;14.50;;
33279;SDS011;20403;43.114;12.434;2023-02-02T10:46:25;26.33;;;11.77;;
33279;SDS011;20403;43.114;12.434;2023-02-02T10:49:18;31.00;;;12.38;;
33279;SDS011;20403;43.114;12.434;2023-02-02T10:51:52;23.45;;;10.77;;
33279;SDS011;20403;43.114;12.434;2023-02-02T10:54:48;26.13;;;12.80;;
33279;SDS011;20403;43.114;12.434;2023-02-02T10:57:12;33.92;;;12.25;;
33279;SDS011;20403;43.114;12.434;2023-02-02T10:59:43;27.10;;;15.60;;
33279;SDS011;20403;43.114;12.434;2023-02-02T11:02:33;28.73;;;13.68;;
33279;SDS011;20403;43.114;12.434;2023-02-02T11:04:59;32.40;;;14.10;;
33279;SDS011;20403;43.114;12.434;2023-02-02T11:07:42;46.15;;;15.30;;
33279;SDS011;20403;43.114;12.434;2023-02-02T11:10:08;34.42;;;14.65;;
33279;SDS011;20403;43.114;12.434;2023-02-02T11:12:34;29.10;;;14.63;;
33279;SDS011;20403;43.114;12.434;2023-02-02T11:15:05;47.72;;;25.13;;
33279;SDS011;20403;43.114;12.434;2023-02-02T11:17:32;35.55;;;15.50;;
33279;SDS011;20403;43.114;12.434;2023-02-02T11:19:58;32.42;;;15.43;;
33279;SDS011;20403;43.114;12.434;2023-02-02T11:22:32;47.38;;;19.13;;
33279;SDS011;20403;43.114;12.434;2023-02-02T11:25:24;39.78;;;15.90;;
33279;SDS011;20403;43.114;12.434;2023-02-02T11:28:00;38.58;;;15.00;;
33279;SDS011;20403;43.114;12.434;2023-02-02T11:30:44;29.77;;;10.05;;
33279;SDS011;20403;43.114;12.434;2023-02-02T11:33:19;28.15;;;10.52;;
33279;SDS011;20403;43.114;12.434;2023-02-02T11:35:53;23.05;;;8.27;;
33279;SDS011;20403;43.114;12.434;2023-02-02T11:38:29;26.10;;;8.48;;
33279;SDS011;20403;43.114;12.434;2023-02-02T11:40:56;29.42;;;8.63;;
33279;SDS011;20403;43.114;12.434;2023-02-02T11:44:04;22.50;;;8.38;;
33279;SDS011;20403;43.114;12.434;2023-02-02T11:46:23;25.33;;;8.18;;
33279;SDS011;20403;43.114;12.434;2023-02-02T11:51:32;35.35;;;9.88;;
33279;SDS011;20403;43.114;12.434;2023-02-02T11:54:04;34.25;;;12.85;;
33279;SDS011;20403;43.114;12.434;2023-02-02T11:56:39;36.97;;;14.32;;
33279;SDS011;20403;43.114;12.434;2023-02-02T11:59:08;26.52;;;9.10;;
33279;SDS011;20403;43.114;12.434;2023-02-02T12:04:50;21.42;;;8.00;;
33279;SDS011;20403;43.114;12.434;2023-02-02T12:07:18;19.90;;;7.07;;
33279;SDS011;20403;43.114;12.434;2023-02-02T12:09:56;24.42;;;7.22;;
33279;SDS011;20403;43.114;12.434;2023-02-02T12:12:41;28.98;;;9.23;;
33279;SDS011;20403;43.114;12.434;2023-02-02T12:17:54;15.52;;;4.05;;
33279;SDS011;20403;43.114;12.434;2023-02-02T12:20:31;20.40;;;4.55;;
33279;SDS011;20403;43.114;12.434;2023-02-02T12:31:36;16.67;;;4.55;;
33279;SDS011;20403;43.114;12.434;2023-02-02T12:40:44;24.48;;;5.30;;
33279;SDS011;20403;43.114;12.434;2023-02-02T12:48:33;14.77;;;4.53;;
33279;SDS011;20403;43.114;12.434;2023-02-02T12:51:22;12.18;;;3.67;;
33279;SDS011;20403;43.114;12.434;2023-02-02T12:54:08;15.25;;;4.78;;
33279;SDS011;20403;43.114;12.434;2023-02-02T13:07:57;22.77;;;5.53;;
33279;SDS011;20403;43.114;12.434;2023-02-02T13:10:36;18.13;;;5.40;;
33279;SDS011;20403;43.114;12.434;2023-02-02T13:13:28;16.35;;;4.53;;
33279;SDS011;20403;43.114;12.434;2023-02-02T13:15:58;23.55;;;5.35;;
33279;SDS011;20403;43.114;12.434;2023-02-02T13:18:30;17.88;;;4.80;;
33279;SDS011;20403;43.114;12.434;2023-02-02T13:21:01;22.58;;;5.07;;
33279;SDS011;20403;43.114;12.434;2023-02-02T13:23:35;15.98;;;5.35;;
33279;SDS011;20403;43.114;12.434;2023-02-02T13:26:03;16.80;;;5.07;;
33279;SDS011;20403;43.114;12.434;2023-02-02T13:28:39;12.55;;;4.25;;
33279;SDS011;20403;43.114;12.434;2023-02-02T13:31:19;15.13;;;4.28;;
33279;SDS011;20403;43.114;12.434;2023-02-02T13:34:04;15.60;;;5.38;;
33279;SDS011;20403;43.114;12.434;2023-02-02T13:36:39;19.27;;;4.97;;
33279;SDS011;20403;43.114;12.434;2023-02-02T13:39:12;16.77;;;3.92;;
33279;SDS011;20403;43.114;12.434;2023-02-02T13:41:41;19.45;;;5.22;;
33279;SDS011;20403;43.114;12.434;2023-02-02T13:44:10;14.15;;;4.30;;
33279;SDS011;20403;43.114;12.434;2023-02-02T13:46:47;22.60;;;5.15;;
33279;SDS011;20403;43.114;12.434;2023-02-02T13:49:28;14.20;;;4.32;;
33279;SDS011;20403;43.114;12.434;2023-02-02T13:52:07;12.30;;;3.67;;
33279;SDS011;20403;43.114;12.434;2023-02-02T14:00:47;16.77;;;4.60;;
33279;SDS011;20403;43.114;12.434;2023-02-02T14:06:03;18.08;;;4.80;;
33279;SDS011;20403;43.114;12.434;2023-02-02T14:08:34;14.48;;;4.93;;
33279;SDS011;20403;43.114;12.434;2023-02-02T14:11:13;18.20;;;3.63;;
33279;SDS011;20403;43.114;12.434;2023-02-02T14:13:44;11.38;;;3.05;;
33279;SDS011;20403;43.114;12.434;2023-02-02T14:19:00;15.38;;;3.10;;
33279;SDS011;20403;43.114;12.434;2023-02-02T14:23:55;12.25;;;3.20;;
33279;SDS011;20403;43.114;12.434;2023-02-02T14:31:56;14.95;;;4.57;;
33279;SDS011;20403;43.114;12.434;2023-02-02T14:45:29;12.00;;;3.58;;
33279;SDS011;20403;43.114;12.434;2023-02-02T14:47:58;16.45;;;3.83;;
33279;SDS011;20403;43.114;12.434;2023-02-02T14:53:27;15.75;;;4.10;;
33279;SDS011;20403;43.114;12.434;2023-02-02T14:56:05;17.70;;;3.28;;
33279;SDS011;20403;43.114;12.434;2023-02-02T15:06:33;20.35;;;4.95;;
33279;SDS011;20403;43.114;12.434;2023-02-02T15:31:45;12.82;;;3.58;;
33279;SDS011;20403;43.114;12.434;2023-02-02T15:34:31;19.33;;;3.58;;
33279;SDS011;20403;43.114;12.434;2023-02-02T15:37:01;11.32;;;3.10;;
33279;SDS011;20403;43.114;12.434;2023-02-02T15:39:31;12.05;;;3.00;;
33279;SDS011;20403;43.114;12.434;2023-02-02T15:42:01;11.63;;;3.47;;
33279;SDS011;20403;43.114;12.434;2023-02-02T15:44:50;17.92;;;3.72;;
33279;SDS011;20403;43.114;12.434;2023-02-02T15:47:16;16.80;;;3.80;;
33279;SDS011;20403;43.114;12.434;2023-02-02T15:49:46;15.02;;;3.17;;
33279;SDS011;20403;43.114;12.434;2023-02-02T15:52:46;15.15;;;3.72;;
33279;SDS011;20403;43.114;12.434;2023-02-02T15:55:20;8.85;;;3.25;;
33279;SDS011;20403;43.114;12.434;2023-02-02T15:57:48;23.73;;;3.83;;
33279;SDS011;20403;43.114;12.434;2023-02-02T16:03:04;22.48;;;5.07;;
33279;SDS011;20403;43.114;12.434;2023-02-02T16:13:41;12.85;;;3.60;;
33279;SDS011;20403;43.114;12.434;2023-02-02T16:16:22;13.20;;;4.38;;
33279;SDS011;20403;43.114;12.434;2023-02-02T16:21:27;13.38;;;4.03;;
33279;SDS011;20403;43.114;12.434;2023-02-02T16:23:53;21.88;;;4.47;;
33279;SDS011;20403;43.114;12.434;2023-02-02T16:26:21;17.15;;;4.90;;
33279;SDS011;20403;43.114;12.434;2023-02-02T16:28:51;18.20;;;5.53;;
33279;SDS011;20403;43.114;12.434;2023-02-02T16:31:17;17.25;;;5.55;;
33279;SDS011;20403;43.114;12.434;2023-02-02T16:33:43;17.70;;;5.30;;
33279;SDS011;20403;43.114;12.434;2023-02-02T16:36:25;16.40;;;4.95;;
33279;SDS011;20403;43.114;12.434;2023-02-02T16:38:53;17.60;;;6.22;;
33279;SDS011;20403;43.114;12.434;2023-02-02T16:41:31;30.95;;;7.85;;
33279;SDS011;20403;43.114;12.434;2023-02-02T16:46:53;19.20;;;7.93;;
33279;SDS011;20403;43.114;12.434;2023-02-02T16:49:22;21.38;;;8.52;;
33279;SDS011;20403;43.114;12.434;2023-02-02T16:54:31;28.52;;;12.00;;
33279;SDS011;20403;43.114;12.434;2023-02-02T16:56:59;27.30;;;10.32;;
33279;SDS011;20403;43.114;12.434;2023-02-02T16:59:29;31.13;;;13.60;;
33279;SDS011;20403;43.114;12.434;2023-02-02T17:02:22;30.17;;;11.25;;
33279;SDS011;20403;43.114;12.434;2023-02-02T17:04:54;23.70;;;7.90;;
33279;SDS011;20403;43.114;12.434;2023-02-02T17:07:27;29.08;;;9.80;;
33279;SDS011;20403;43.114;12.434;2023-02-02T17:12:41;27.95;;;8.00;;
33279;SDS011;20403;43.114;12.434;2023-02-02T17:17:41;19.27;;;8.00;;
33279;SDS011;20403;43.114;12.434;2023-02-02T17:20:14;20.88;;;7.63;;
33279;SDS011;20403;43.114;12.434;2023-02-02T17:22:41;17.88;;;7.45;;
33279;SDS011;20403;43.114;12.434;2023-02-02T17:25:16;24.70;;;7.78;;
33279;SDS011;20403;43.114;12.434;2023-02-02T17:27:45;33.72;;;9.80;;
33279;SDS011;20403;43.114;12.434;2023-02-02T17:30:15;26.55;;;9.50;;
33279;SDS011;20403;43.114;12.434;2023-02-02T17:32:42;22.60;;;8.73;;
33279;SDS011;20403;43.114;12.434;2023-02-02T17:35:17;20.02;;;10.00;;
33279;SDS011;20403;43.114;12.434;2023-02-02T17:37:45;31.85;;;9.40;;
33279;SDS011;20403;43.114;12.434;2023-02-02T17:40:12;19.42;;;8.55;;
33279;SDS011;20403;43.114;12.434;2023-02-02T17:42:38;16.90;;;7.60;;
33279;SDS011;20403;43.114;12.434;2023-02-02T17:45:08;19.15;;;8.20;;
33279;SDS011;20403;43.114;12.434;2023-02-02T17:47:37;20.50;;;8.45;;
33279;SDS011;20403;43.114;12.434;2023-02-02T17:50:03;20.80;;;8.77;;
33279;SDS011;20403;43.114;12.434;2023-02-02T17:52:29;15.85;;;7.93;;
33279;SDS011;20403;43.114;12.434;2023-02-02T17:54:55;29.00;;;11.60;;
33279;SDS011;20403;43.114;12.434;2023-02-02T17:57:20;25.55;;;9.20;;
33279;SDS011;20403;43.114;12.434;2023-02-02T17:59:45;26.10;;;10.38;;
33279;SDS011;20403;43.114;12.434;2023-02-02T18:02:11;23.15;;;9.70;;
33279;SDS011;20403;43.114;12.434;2023-02-02T18:04:40;78.57;;;10.60;;
33279;SDS011;20403;43.114;12.434;2023-02-02T18:07:07;24.50;;;8.82;;
33279;SDS011;20403;43.114;12.434;2023-02-02T18:09:33;28.33;;;11.52;;
33279;SDS011;20403;43.114;12.434;2023-02-02T18:11:58;26.48;;;9.38;;
33279;SDS011;20403;43.114;12.434;2023-02-02T18:14:24;26.85;;;8.77;;
33279;SDS011;20403;43.114;12.434;2023-02-02T18:16:50;26.05;;;9.32;;
33279;SDS011;20403;43.114;12.434;2023-02-02T18:19:15;24.00;;;10.88;;
33279;SDS011;20403;43.114;12.434;2023-02-02T18:21:40;32.58;;;11.13;;
33279;SDS011;20403;43.114;12.434;2023-02-02T18:24:06;21.83;;;8.80;;
33279;SDS011;20403;43.114;12.434;2023-02-02T18:26:31;23.98;;;9.90;;
33279;SDS011;20403;43.114;12.434;2023-02-02T18:28:58;31.17;;;11.38;;
33279;SDS011;20403;43.114;12.434;2023-02-02T18:31:24;28.15;;;10.95;;
33279;SDS011;20403;43.114;12.434;2023-02-02T18:33:50;37.58;;;11.70;;
33279;SDS011;20403;43.114;12.434;2023-02-02T18:36:17;28.17;;;10.13;;
33279;SDS011;20403;43.114;12.434;2023-02-02T18:38:46;24.98;;;10.40;;
33279;SDS011;20403;43.114;12.434;2023-02-02T18:41:12;22.95;;;9.27;;
33279;SDS011;20403;43.114;12.434;2023-02-02T18:43:39;24.88;;;8.95;;
33279;SDS011;20403;43.114;12.434;2023-02-02T18:46:06;27.45;;;9.02;;
33279;SDS011;20403;43.114;12.434;2023-02-02T18:48:33;18.63;;;8.20;;
33279;SDS011;20403;43.114;12.434;2023-02-02T18:51:06;21.20;;;7.80;;
33279;SDS011;20403;43.114;12.434;2023-02-02T18:53:33;22.58;;;9.00;;
33279;SDS011;20403;43.114;12.434;2023-02-02T18:56:02;25.50;;;10.13;;
33279;SDS011;20403;43.114;12.434;2023-02-02T18:58:29;44.15;;;14.57;;
33279;SDS011;20403;43.114;12.434;2023-02-02T19:00:56;28.52;;;12.27;;
33279;SDS011;20403;43.114;12.434;2023-02-02T19:03:21;28.83;;;12.00;;
33279;SDS011;20403;43.114;12.434;2023-02-02T19:05:47;22.83;;;9.88;;
33279;SDS011;20403;43.114;12.434;2023-02-02T19:08:30;27.70;;;13.32;;
33279;SDS011;20403;43.114;12.434;2023-02-02T19:10:57;30.00;;;11.93;;
33279;SDS011;20403;43.114;12.434;2023-02-02T19:13:26;26.05;;;8.95;;
33279;SDS011;20403;43.114;12.434;2023-02-02T19:15:52;25.75;;;10.30;;
33279;SDS011;20403;43.114;12.434;2023-02-02T19:18:21;22.70;;;10.48;;
33279;SDS011;20403;43.114;12.434;2023-02-02T19:20:48;23.47;;;10.03;;
33279;SDS011;20403;43.114;12.434;2023-02-02T19:23:15;27.15;;;11.05;;
33279;SDS011;20403;43.114;12.434;2023-02-02T19:25:44;31.77;;;12.40;;
33279;SDS011;20403;43.114;12.434;2023-02-02T19:28:20;33.47;;;11.43;;
33279;SDS011;20403;43.114;12.434;2023-02-02T19:33:20;20.65;;;9.23;;
33279;SDS011;20403;43.114;12.434;2023-02-02T19:35:50;31.45;;;8.35;;
33279;SDS011;20403;43.114;12.434;2023-02-02T19:38:17;26.17;;;9.95;;
33279;SDS011;20403;43.114;12.434;2023-02-02T19:40:44;25.05;;;9.85;;